createdAt,value
2023-04-09T00:01:54.914Z,64
2023-04-09T00:04:25.779Z,61
2023-04-09T00:06:56.488Z,64
2023-04-09T00:09:25.999Z,64
2023-04-09T00:11:56.233Z,61
2023-04-09T00:14:27.026Z,67
2023-04-09T00:16:57.791Z,65
2023-04-09T00:19:28.474Z,60
2023-04-09T00:21:59.498Z,60
2023-04-09T00:24:32.803Z,60
2023-04-09T00:27:03.527Z,61
2023-04-09T00:29:34.282Z,61
2023-04-09T00:32:05.182Z,68
2023-04-09T00:34:37.010Z,64
2023-04-09T00:37:07.947Z,64
2023-04-09T00:39:36.738Z,60
2023-04-09T00:42:07.677Z,66
2023-04-09T00:44:38.996Z,60
2023-04-09T00:47:10.161Z,61
2023-04-09T00:49:40.649Z,63
2023-04-09T00:52:10.508Z,56
2023-04-09T00:54:41.613Z,57
2023-04-09T00:57:12.595Z,60
2023-04-09T00:59:43.606Z,56
2023-04-09T01:02:14.216Z,54
2023-04-09T01:04:45.312Z,58
2023-04-09T01:07:16.038Z,60
2023-04-09T01:09:47.207Z,56
2023-04-09T01:12:19.706Z,56
2023-04-09T01:14:50.633Z,56
2023-04-09T01:17:30.161Z,56
2023-04-09T01:20:00.925Z,57
2023-04-09T01:22:32.102Z,55
2023-04-09T01:25:03.104Z,56
2023-04-09T01:27:34.248Z,55
2023-04-09T01:30:05.197Z,51
2023-04-09T01:32:35.961Z,48
2023-04-09T01:35:08.103Z,56
2023-04-09T01:37:38.632Z,52
2023-04-09T01:40:10.573Z,55
2023-04-09T01:42:41.124Z,52
2023-04-09T01:45:11.848Z,52
2023-04-09T01:47:47.569Z,56
2023-04-09T01:50:21.942Z,55
2023-04-09T01:52:53.040Z,55
2023-04-09T01:55:23.921Z,56
2023-04-09T01:57:58.215Z,56
2023-04-09T02:00:41.253Z,56
2023-04-09T02:03:15.510Z,52
2023-04-09T02:05:49.182Z,53
2023-04-09T02:08:19.789Z,56
2023-04-09T02:10:53.290Z,56
2023-04-09T02:13:24.130Z,56
2023-04-09T02:15:57.037Z,52
2023-04-09T02:18:29.409Z,56
2023-04-09T02:21:00.362Z,54
2023-04-09T02:23:30.936Z,52
2023-04-09T02:26:01.989Z,52
2023-04-09T02:28:32.931Z,55
2023-04-09T02:31:03.813Z,52
2023-04-09T02:33:35.052Z,52
2023-04-09T02:36:06.171Z,56
2023-04-09T02:38:36.883Z,52
2023-04-09T02:41:10.428Z,55
2023-04-09T02:43:41.150Z,53
2023-04-09T02:46:12.005Z,52
2023-04-09T02:48:43.153Z,53
2023-04-09T02:51:14.283Z,55
2023-04-09T02:53:44.969Z,51
2023-04-09T02:56:15.946Z,51
2023-04-09T02:58:46.740Z,50
2023-04-09T03:01:17.696Z,56
2023-04-09T03:03:48.620Z,52
2023-04-09T03:06:19.451Z,56
2023-04-09T03:08:50.687Z,58
2023-04-09T03:11:21.556Z,56
2023-04-09T03:13:50.957Z,52
2023-04-09T03:16:21.591Z,52
2023-04-09T03:18:52.947Z,53
2023-04-09T03:21:23.717Z,52
2023-04-09T03:23:54.159Z,54
2023-04-09T03:26:29.161Z,54
2023-04-09T03:28:59.667Z,55
2023-04-09T03:31:30.455Z,52
2023-04-09T03:34:05.117Z,49
2023-04-09T03:36:35.725Z,45
2023-04-09T03:39:06.223Z,48
2023-04-09T03:41:36.998Z,52
2023-04-09T03:44:11.224Z,46
2023-04-09T03:46:44.114Z,44
2023-04-09T03:49:12.992Z,52
2023-04-09T03:51:43.329Z,47
2023-04-09T03:54:16.160Z,49
2023-04-09T03:56:46.953Z,49
2023-04-09T03:59:22.674Z,50
2023-04-09T04:01:53.111Z,46
2023-04-09T04:04:24.172Z,51
2023-04-09T04:06:55.811Z,48
2023-04-09T04:09:26.440Z,50
2023-04-09T04:11:56.626Z,48
2023-04-09T04:14:26.870Z,49
2023-04-09T04:16:57.537Z,44
2023-04-09T04:19:28.980Z,47
2023-04-09T04:21:59.993Z,45
2023-04-09T04:24:30.770Z,48
2023-04-09T04:27:01.533Z,44
2023-04-09T04:29:32.367Z,45
2023-04-09T04:32:04.581Z,44
2023-04-09T04:34:35.142Z,48
2023-04-09T04:37:05.763Z,48
2023-04-09T04:39:36.837Z,48
2023-04-09T04:42:07.425Z,47
2023-04-09T04:44:38.250Z,44
2023-04-09T04:47:08.959Z,48
2023-04-09T04:49:40.089Z,50
2023-04-09T04:52:12.940Z,48
2023-04-09T04:54:44.717Z,48
2023-04-09T04:57:15.761Z,48
2023-04-09T04:59:45.551Z,52
2023-04-09T05:02:19.809Z,50
2023-04-09T05:04:50.379Z,52
2023-04-09T05:07:25.978Z,53
2023-04-09T05:09:56.662Z,55
2023-04-09T05:12:28.729Z,48
2023-04-09T05:14:59.507Z,52
2023-04-09T05:17:30.366Z,46
2023-04-09T05:20:01.829Z,50
2023-04-09T05:22:32.418Z,49
2023-04-09T05:25:03.625Z,49
2023-04-09T05:27:34.817Z,48
2023-04-09T05:30:05.223Z,50
2023-04-09T05:32:35.904Z,48
2023-04-09T05:35:06.745Z,49
2023-04-09T05:37:37.303Z,51
2023-04-09T05:40:07.849Z,49
2023-04-09T05:42:38.351Z,49
2023-04-09T05:45:08.680Z,56
2023-04-09T05:47:39.441Z,53
2023-04-09T05:50:11.206Z,56
2023-04-09T05:52:43.089Z,63
2023-04-09T05:55:14.063Z,64
2023-04-09T05:57:45.109Z,61
2023-04-09T06:00:18.234Z,56
2023-04-09T06:02:48.579Z,56
2023-04-09T06:05:18.752Z,54
2023-04-09T06:07:52.415Z,52
2023-04-09T06:10:23.655Z,56
2023-04-09T06:12:56.335Z,53
2023-04-09T06:15:28.546Z,60
2023-04-09T06:18:00.482Z,56
2023-04-09T06:20:31.588Z,60
2023-04-09T06:23:03.103Z,64
2023-04-09T06:25:32.704Z,56
2023-04-09T06:28:04.489Z,56
2023-04-09T06:30:35.595Z,62
2023-04-09T06:33:13.710Z,60
2023-04-09T06:35:44.859Z,60
2023-04-09T06:38:15.912Z,64
2023-04-09T06:40:46.060Z,67
2023-04-09T06:43:17.980Z,65
2023-04-09T06:45:47.270Z,57
2023-04-09T06:48:17.983Z,57
2023-04-09T06:50:48.490Z,60
2023-04-09T06:53:21.865Z,56
2023-04-09T06:55:52.696Z,65
2023-04-09T06:58:24.380Z,64
2023-04-09T07:00:55.481Z,64
2023-04-09T07:03:26.500Z,68
2023-04-09T07:06:01.154Z,71
2023-04-09T07:08:32.093Z,57
2023-04-09T07:11:02.619Z,85
2023-04-09T07:13:36.046Z,69
2023-04-09T07:16:07.277Z,72
2023-04-09T07:18:37.938Z,72
2023-04-09T07:21:12.745Z,66
2023-04-09T07:23:47.708Z,60
2023-04-09T07:26:18.116Z,57
2023-04-09T07:28:49.080Z,63
2023-04-09T07:31:19.840Z,59
2023-04-09T07:33:51.327Z,58
2023-04-09T07:36:21.657Z,65
2023-04-09T07:38:52.367Z,69
2023-04-09T07:41:22.726Z,64
2023-04-09T07:43:53.298Z,61
2023-04-09T07:46:23.714Z,59
2023-04-09T07:48:55.489Z,63
2023-04-09T07:51:25.629Z,57
2023-04-09T07:53:56.306Z,60
2023-04-09T07:56:31.765Z,53
2023-04-09T07:59:01.300Z,58
2023-04-09T08:01:32.070Z,52
2023-04-09T08:04:03.151Z,56
2023-04-09T08:06:33.456Z,52
2023-04-09T08:09:05.406Z,52
2023-04-09T08:11:36.338Z,56
2023-04-09T08:14:08.140Z,52
2023-04-09T08:16:38.923Z,56
2023-04-09T08:19:09.702Z,52
2023-04-09T08:21:40.335Z,52
2023-04-09T08:24:11.634Z,52
2023-04-09T08:26:42.481Z,52
2023-04-09T08:29:13.225Z,52
2023-04-09T08:31:44.396Z,55
2023-04-09T08:34:16.929Z,49
2023-04-09T08:36:52.010Z,52
2023-04-09T08:39:23.930Z,51
2023-04-09T08:41:55.984Z,64
2023-04-09T08:44:26.254Z,61
2023-04-09T08:46:58.275Z,54
2023-04-09T08:49:28.995Z,52
2023-04-09T08:52:01.805Z,50
2023-04-09T08:54:31.712Z,48
2023-04-09T08:57:02.413Z,48
2023-04-09T08:59:36.793Z,48
2023-04-09T09:02:08.001Z,54
2023-04-09T09:04:39.875Z,51
2023-04-09T09:07:12.211Z,48
2023-04-09T09:09:44.775Z,48
2023-04-09T09:12:16.234Z,42
2023-04-09T09:14:48.324Z,44
2023-04-09T09:17:22.943Z,40
2023-04-09T09:19:54.873Z,53
2023-04-09T09:22:25.459Z,40
2023-04-09T09:24:57.695Z,40
2023-04-09T09:27:28.805Z,40
2023-04-09T09:30:02.364Z,40
2023-04-09T09:32:35.498Z,36
2023-04-09T09:35:06.896Z,36
2023-04-09T09:37:37.552Z,39
2023-04-09T09:40:06.064Z,37
2023-04-09T09:42:37.900Z,36
2023-04-09T09:45:08.730Z,36
2023-04-09T09:47:37.891Z,36
2023-04-09T09:50:10.306Z,36
2023-04-09T09:52:40.930Z,36
2023-04-09T09:55:11.230Z,38
2023-04-09T09:57:41.627Z,36
2023-04-09T10:00:13.031Z,36
2023-04-09T10:02:45.415Z,40
2023-04-09T10:05:16.201Z,36
2023-04-09T10:07:46.939Z,36
2023-04-09T10:10:18.604Z,36
2023-04-09T10:12:52.889Z,37
2023-04-09T10:15:25.302Z,39
2023-04-09T10:17:56.719Z,36
2023-04-09T10:20:25.922Z,32
2023-04-09T10:22:56.174Z,35
2023-04-09T10:25:26.880Z,36
2023-04-09T10:27:56.223Z,32
2023-04-09T10:30:26.676Z,36
2023-04-09T10:33:01.251Z,36
2023-04-09T10:35:33.186Z,32
2023-04-09T10:38:04.030Z,36
2023-04-09T10:40:34.665Z,32
2023-04-09T10:43:05.323Z,32
2023-04-09T10:45:36.114Z,32
2023-04-09T10:48:06.771Z,36
2023-04-09T10:50:39.974Z,32
2023-04-09T10:53:10.352Z,32
2023-04-09T10:55:40.993Z,32
2023-04-09T10:58:13.922Z,34
2023-04-09T11:00:45.068Z,32
2023-04-09T11:03:16.928Z,34
2023-04-09T11:05:52.069Z,32
2023-04-09T11:08:28.372Z,31
2023-04-09T11:10:59.344Z,32
2023-04-09T11:13:30.292Z,32
2023-04-09T11:16:01.389Z,34
2023-04-09T11:18:32.389Z,32
2023-04-09T11:21:04.008Z,32
2023-04-09T11:23:35.531Z,36
2023-04-09T11:26:06.007Z,36
2023-04-09T11:28:38.210Z,34
2023-04-09T11:31:09.080Z,35
2023-04-09T11:33:40.435Z,33
2023-04-09T11:36:11.634Z,34
2023-04-09T11:38:43.800Z,32
2023-04-09T11:41:14.113Z,32
2023-04-09T11:43:44.552Z,32
2023-04-09T11:46:15.077Z,36
2023-04-09T11:48:45.770Z,36
2023-04-09T11:51:15.989Z,36
2023-04-09T11:53:46.558Z,40
2023-04-09T11:56:16.959Z,36
2023-04-09T11:58:47.699Z,32
2023-04-09T12:01:17.969Z,32
2023-04-09T12:03:48.377Z,36
2023-04-09T12:06:18.669Z,32
2023-04-09T12:08:48.984Z,35
2023-04-09T12:11:20.381Z,36
2023-04-09T12:13:50.743Z,35
2023-04-09T12:16:21.209Z,32
2023-04-09T12:18:51.888Z,32
2023-04-09T12:21:24.428Z,32
2023-04-09T12:23:55.966Z,32
2023-04-09T12:26:26.381Z,33
2023-04-09T12:28:57.014Z,32
2023-04-09T12:31:27.421Z,34
2023-04-09T12:34:03.091Z,31
2023-04-09T12:36:33.403Z,32
2023-04-09T12:39:04.029Z,32
2023-04-09T12:41:40.389Z,32
2023-04-09T12:44:10.633Z,33
2023-04-09T12:46:41.231Z,32
2023-04-09T12:49:11.813Z,32
2023-04-09T12:51:42.065Z,32
2023-04-09T12:54:12.682Z,32
2023-04-09T12:56:43.670Z,32
2023-04-09T12:59:14.346Z,32
2023-04-09T13:01:44.986Z,32
2023-04-09T13:04:15.818Z,33
2023-04-09T13:06:47.508Z,32
2023-04-09T13:09:20.376Z,32
2023-04-09T13:11:52.149Z,32
2023-04-09T13:14:22.384Z,32
2023-04-09T13:16:54.972Z,29
2023-04-09T13:19:26.650Z,32
2023-04-09T13:21:58.411Z,32
2023-04-09T13:24:29.108Z,32
2023-04-09T13:26:59.449Z,32
2023-04-09T13:29:31.979Z,33
2023-04-09T13:32:02.618Z,36
2023-04-09T13:34:35.662Z,54
2023-04-09T13:37:06.265Z,32
2023-04-09T13:39:37.027Z,28
2023-04-09T13:42:13.515Z,32
2023-04-09T13:44:38.295Z,32
2023-04-09T13:47:09.146Z,32
2023-04-09T13:49:40.237Z,32
2023-04-09T13:52:10.878Z,32
2023-04-09T13:54:41.385Z,32
2023-04-09T13:57:11.997Z,36
2023-04-09T13:59:42.508Z,36
2023-04-09T14:02:13.405Z,33
2023-04-09T14:04:43.853Z,32
2023-04-09T14:07:13.929Z,32
2023-04-09T14:09:44.663Z,34
2023-04-09T14:12:15.353Z,32
2023-04-09T14:14:45.618Z,36
2023-04-09T14:17:16.132Z,35
2023-04-09T14:19:46.792Z,36
2023-04-09T14:22:18.269Z,32
2023-04-09T14:24:50.669Z,33
2023-04-09T14:27:23.552Z,36
2023-04-09T14:29:54.530Z,36
2023-04-09T14:32:25.073Z,36
2023-04-09T14:34:55.214Z,33
2023-04-09T14:37:25.670Z,32
2023-04-09T14:39:56.990Z,32
2023-04-09T14:42:28.953Z,32
2023-04-09T14:44:59.862Z,28
2023-04-09T14:47:30.911Z,27
2023-04-09T14:50:03.274Z,28
2023-04-09T14:52:34.333Z,24
2023-04-09T14:57:40.630Z,28
2023-04-09T15:00:11.480Z,32
2023-04-09T15:02:42.310Z,32
2023-04-09T15:05:11.534Z,36
2023-04-09T15:07:42.399Z,36
2023-04-09T15:10:27.872Z,32
2023-04-09T15:13:02.884Z,28
2023-04-09T15:15:35.016Z,29
2023-04-09T15:18:08.198Z,28
2023-04-09T15:20:38.508Z,30
2023-04-09T15:23:11.702Z,32
2023-04-09T15:25:46.605Z,32
2023-04-09T15:28:19.786Z,32
2023-04-09T15:30:49.956Z,32
2023-04-09T15:33:20.924Z,36
2023-04-09T15:35:51.460Z,36
2023-04-09T15:38:21.847Z,36
2023-04-09T15:40:52.181Z,32
2023-04-09T15:43:22.649Z,36
2023-04-09T15:45:52.934Z,36
2023-04-09T15:48:25.044Z,33
2023-04-09T15:50:55.649Z,36
2023-04-09T15:53:25.873Z,36
2023-04-09T15:55:56.799Z,35
2023-04-09T15:58:27.349Z,32
2023-04-09T16:00:58.449Z,36
2023-04-09T16:03:31.880Z,38
2023-04-09T16:06:02.889Z,42
2023-04-09T16:08:33.336Z,36
2023-04-09T16:11:03.975Z,40
2023-04-09T16:13:35.699Z,36
2023-04-09T16:16:08.275Z,32
2023-04-09T16:18:39.921Z,36
2023-04-09T16:21:10.370Z,33
2023-04-09T16:23:42.013Z,36
2023-04-09T16:26:14.354Z,36
2023-04-09T16:28:47.684Z,36
2023-04-09T16:31:18.578Z,36
2023-04-09T16:33:49.149Z,36
2023-04-09T16:36:21.957Z,36
2023-04-09T16:38:53.605Z,33
2023-04-09T16:41:24.966Z,32
2023-04-09T16:43:55.303Z,34
2023-04-09T16:46:26.911Z,32
2023-04-09T16:49:02.780Z,33
2023-04-09T16:51:34.716Z,36
2023-04-09T16:54:08.088Z,32
2023-04-09T16:56:41.121Z,32
2023-04-09T16:59:14.239Z,32
2023-04-09T17:01:50.589Z,36
2023-04-09T17:04:26.083Z,35
2023-04-09T17:06:57.941Z,35
2023-04-09T17:09:27.566Z,32
2023-04-09T17:11:58.633Z,36
2023-04-09T17:14:34.715Z,32
2023-04-09T17:17:06.157Z,32
2023-04-09T17:19:36.456Z,32
2023-04-09T17:22:07.930Z,32
2023-04-09T17:24:39.782Z,32
2023-04-09T17:27:10.124Z,33
2023-04-09T17:29:43.954Z,34
2023-04-09T17:32:14.532Z,36
2023-04-09T17:34:44.964Z,32
2023-04-09T17:37:15.602Z,33
2023-04-09T17:39:52.696Z,32
2023-04-09T17:42:24.197Z,34
2023-04-09T17:44:55.389Z,36
2023-04-09T17:47:30.289Z,33
2023-04-09T17:50:01.986Z,36
2023-04-09T17:52:34.135Z,36
2023-04-09T17:55:10.973Z,36
2023-04-09T17:57:44.332Z,36
2023-04-09T18:00:13.670Z,36
2023-04-09T18:02:46.101Z,36
2023-04-09T18:05:15.571Z,36
2023-04-09T18:07:45.499Z,36
2023-04-09T18:10:25.984Z,36
2023-04-09T18:12:54.723Z,36
2023-04-09T18:15:25.308Z,36
2023-04-09T18:17:56.545Z,36
2023-04-09T18:20:26.979Z,36
2023-04-09T18:22:57.424Z,37
2023-04-09T18:25:31.460Z,40
2023-04-09T18:28:01.955Z,40
2023-04-09T18:30:32.384Z,40
2023-04-09T18:33:04.350Z,40
2023-04-09T18:35:35.649Z,40
2023-04-09T18:38:08.394Z,40
2023-04-09T18:43:20.924Z,37
2023-04-09T18:45:51.430Z,36
2023-04-09T18:48:21.937Z,39
2023-04-09T18:50:52.665Z,40
2023-04-09T18:53:29.696Z,36
2023-04-09T18:56:07.454Z,39
2023-04-09T18:58:39.097Z,36
2023-04-09T19:01:12.241Z,37
2023-04-09T19:03:42.930Z,40
2023-04-09T19:06:15.392Z,38
2023-04-09T19:08:46.198Z,40
2023-04-09T19:11:18.506Z,36
2023-04-09T19:13:49.317Z,39
2023-04-09T19:16:20.024Z,37
2023-04-09T19:18:50.497Z,40
2023-04-09T19:21:21.561Z,39
2023-04-09T19:23:52.965Z,36
2023-04-09T19:26:26.648Z,36
2023-04-09T19:28:59.947Z,38
2023-04-09T19:31:37.915Z,36
2023-04-09T19:34:10.421Z,36
2023-04-09T19:36:43.220Z,36
2023-04-09T19:39:13.259Z,36
2023-04-09T19:41:48.577Z,35
2023-04-09T19:44:22.703Z,36
2023-04-09T19:46:53.488Z,36
2023-04-09T19:49:23.850Z,36
2023-04-09T19:51:55.400Z,36
2023-04-09T19:54:30.125Z,36
2023-04-09T19:57:06.290Z,36
2023-04-09T19:59:35.020Z,36
2023-04-09T20:02:05.763Z,36
2023-04-09T20:04:36.277Z,36
2023-04-09T20:07:07.374Z,36
2023-04-09T20:09:37.974Z,36
2023-04-09T20:12:10.299Z,37
2023-04-09T20:14:43.933Z,37
2023-04-09T20:17:14.334Z,36
2023-04-09T20:22:23.317Z,41
2023-04-09T20:24:53.892Z,36
2023-04-09T20:27:24.377Z,37
2023-04-09T20:29:56.780Z,36
2023-04-09T20:32:28.412Z,36
2023-04-09T20:35:01.689Z,40
2023-04-09T20:37:34.167Z,59
2023-04-09T20:40:04.667Z,61
2023-04-09T20:42:35.276Z,69
2023-04-09T20:45:07.012Z,64
2023-04-09T20:47:38.501Z,60
2023-04-09T20:50:13.092Z,52
2023-04-09T20:52:44.252Z,54
2023-04-09T20:55:15.690Z,64
2023-04-09T20:57:47.310Z,63
2023-04-09T21:00:19.139Z,60
2023-04-09T21:02:48.271Z,60
2023-04-09T21:05:23.194Z,57
2023-04-09T21:07:54.464Z,55
2023-04-09T21:10:30.709Z,64
2023-04-09T21:13:03.309Z,64
2023-04-09T21:15:46.768Z,75
2023-04-09T21:18:17.045Z,72
2023-04-09T21:20:48.230Z,76
2023-04-09T21:23:20.300Z,82
2023-04-09T21:25:50.992Z,84
2023-04-09T21:28:24.677Z,87
2023-04-09T21:30:55.962Z,84
2023-04-09T21:33:29.957Z,85
2023-04-09T21:35:58.725Z,75
2023-04-09T21:38:41.532Z,80
2023-04-09T21:41:13.799Z,80
2023-04-09T21:43:44.458Z,80
2023-04-09T21:46:19.250Z,82
2023-04-09T21:48:53.025Z,82
2023-04-09T21:51:33.011Z,80
2023-04-09T21:54:03.913Z,82
2023-04-09T21:56:35.381Z,83
2023-04-09T21:59:09.307Z,83
2023-04-09T22:01:40.403Z,76
2023-04-09T22:04:15.417Z,81
2023-04-09T22:06:46.704Z,91
2023-04-09T22:09:16.673Z,86
2023-04-09T22:11:48.097Z,86
2023-04-09T22:14:24.721Z,80
2023-04-09T22:16:55.393Z,80
2023-04-09T22:19:26.820Z,88
2023-04-09T22:21:57.570Z,83
2023-04-09T22:24:27.910Z,80
2023-04-09T22:26:58.508Z,87
2023-04-09T22:29:28.680Z,78
2023-04-09T22:32:01.957Z,75
2023-04-09T22:34:31.514Z,77
2023-04-09T22:37:02.152Z,72
2023-04-09T22:39:32.402Z,78
2023-04-09T22:42:01.955Z,76
2023-04-09T22:44:32.883Z,77
2023-04-09T22:47:03.316Z,79
2023-04-09T22:49:32.208Z,69
2023-04-09T22:52:01.872Z,76
2023-04-09T22:54:32.446Z,76
2023-04-09T22:57:03.392Z,76
2023-04-09T22:59:39.809Z,75
2023-04-09T23:02:06.485Z,73
2023-04-09T23:04:37.239Z,79
2023-04-09T23:07:07.529Z,76
2023-04-09T23:09:38.231Z,70
2023-04-09T23:12:09.292Z,72
2023-04-09T23:14:46.184Z,76
2023-04-09T23:17:16.124Z,71
2023-04-09T23:19:50.126Z,74
2023-04-09T23:22:20.833Z,68
2023-04-09T23:24:51.366Z,72
2023-04-09T23:27:21.841Z,70
2023-04-09T23:29:54.774Z,68
2023-04-09T23:35:02.073Z,58
2023-04-09T23:37:34.906Z,49
2023-04-09T23:40:05.637Z,52
2023-04-09T23:42:37.315Z,60
2023-04-09T23:45:09.429Z,64
2023-04-09T23:47:40.031Z,64
2023-04-09T23:50:12.373Z,64
2023-04-09T23:52:43.048Z,56
2023-04-09T23:55:13.819Z,56
2023-04-09T23:57:44.794Z,56
